首页
METAR-TAF:

METAR-TAF

机场 :

尼斯蓝色海岸机场

尼斯, 法国

纬度: 43-39N, 经度: 007-12E, 海拔: 4米

当前天气观测

该预报发布于40分钟前的18:00 UTC
风速3节,风向多变
温度 31°C
湿度 43%
气压 1020 hPa
能见度10公里或以上
1500米以下无云,无积雨云

METAR: LFMN 261800Z VRB03KT CAVOK 31/17 Q1020 NOSIG

时间: 20:40 (18:40 UTC)

预报

该预报发布于4小时和40分钟前的14:00 UTC
预报有效从26日的 15点(UTC)到 27日的 21点(UTC)
风速5节,风向东南
能见度10公里或以上
少量云层高于11000英尺, 积雨云.
成为
从 26日的 16点(UTC)到 26日的 18点(UTC)
风速3节,风向多变
能见度10公里或以上
1500米以下无云,无积雨云
成为
从 26日的 20点(UTC)到 26日的 22点(UTC)
风速10节,风向北转西北
成为
从 27日的 06点(UTC)到 27日的 08点(UTC)
风速5节,风向东南
成为
从 27日的 18点(UTC)到 27日的 20点(UTC)
风速3节,风向多变

TAF: LFMN 261400Z 2615/2721 14005KT 9999 FEW110CB BECMG 2616/2618 VRB03KT CAVOK BECMG 2620/2622 34010KT BECMG 2706/2708 14005KT BECMG 2718/2720 VRB03KT

超过4000个机场的气象观测和天气预报(METAR&TAF报告)。

可查询的气象台以黄色和红色小点在地图上表示。

将鼠标移到小点上方,可查看气象台名称。

然后点击查看天气观测和预报。

如需切换地图:点击带黑十字的绿色按钮放大地图;点击带横线的绿色按钮缩小地图;或者点击绿色箭头查看邻近地区的地图。


METAR-TAF: